createdAt,value
2018-03-28T00:00:48.698Z,30.30
2018-03-28T00:03:16.315Z,25.70
2018-03-28T00:05:44.648Z,26.43
2018-03-28T00:08:12.227Z,25.90
2018-03-28T00:10:40.524Z,30.73
2018-03-28T00:13:08.911Z,28.73
2018-03-28T00:15:36.503Z,26.17
2018-03-28T00:18:04.135Z,27.27
2018-03-28T00:20:31.739Z,27.53
2018-03-28T00:22:59.388Z,28.70
2018-03-28T00:25:26.989Z,28.83
2018-03-28T00:27:54.626Z,25.93
2018-03-28T00:30:22.911Z,27.17
2018-03-28T00:32:50.495Z,30.40
2018-03-28T00:35:18.184Z,27.57
2018-03-28T00:37:45.782Z,27.83
2018-03-28T00:40:14.156Z,32.70
2018-03-28T00:42:41.745Z,23.60
2018-03-28T00:45:09.319Z,27.33
2018-03-28T00:47:37.994Z,27.53
2018-03-28T00:50:05.583Z,28.40
2018-03-28T00:52:33.214Z,26.20
2018-03-28T00:55:00.781Z,28.63
2018-03-28T00:57:28.358Z,24.17
2018-03-28T00:59:55.925Z,23.63
2018-03-28T01:02:23.557Z,25.10
2018-03-28T01:04:51.895Z,23.20
2018-03-28T01:07:20.293Z,25.30
2018-03-28T01:09:47.937Z,26.67
2018-03-28T01:12:15.514Z,28.33
2018-03-28T01:14:43.139Z,25.90
2018-03-28T01:17:11.498Z,25.33
2018-03-28T01:19:39.099Z,25.40
2018-03-28T01:22:06.692Z,27.30
2018-03-28T01:24:34.279Z,24.47
2018-03-28T01:27:03.556Z,23.27
2018-03-28T01:29:31.151Z,25.00
2018-03-28T01:31:59.477Z,22.17
2018-03-28T01:34:27.048Z,25.10
2018-03-28T01:36:54.656Z,22.33
2018-03-28T01:39:22.250Z,23.87
2018-03-28T01:41:49.828Z,25.97
2018-03-28T01:44:18.192Z,25.23
2018-03-28T01:46:45.765Z,24.70
2018-03-28T01:49:13.335Z,27.13
2018-03-28T01:51:40.903Z,24.37
2018-03-28T01:54:08.501Z,25.53
2018-03-28T01:56:36.071Z,27.57
2018-03-28T01:59:03.664Z,24.90
2018-03-28T02:01:32.045Z,24.00
2018-03-28T02:04:00.375Z,25.77
2018-03-28T02:06:27.942Z,22.87
2018-03-28T02:08:55.504Z,24.73
2018-03-28T02:11:23.122Z,25.10
2018-03-28T02:13:50.695Z,20.13
2018-03-28T02:16:18.307Z,23.07
2018-03-28T02:18:45.885Z,23.73
2018-03-28T02:21:14.212Z,22.43
2018-03-28T02:23:42.563Z,21.37
2018-03-28T02:26:10.148Z,25.67
2018-03-28T02:28:38.186Z,22.17
2018-03-28T02:31:05.859Z,21.37
2018-03-28T02:33:33.426Z,22.63
2018-03-28T02:36:01.027Z,24.90
2018-03-28T02:38:29.425Z,22.03
2018-03-28T02:40:57.781Z,22.57
2018-03-28T02:43:25.393Z,24.47
2018-03-28T02:45:53.012Z,22.47
2018-03-28T02:48:20.592Z,22.43
2018-03-28T02:50:48.225Z,19.60
2018-03-28T02:53:15.800Z,22.07
2018-03-28T02:55:43.395Z,21.83
2018-03-28T02:58:10.961Z,20.80
2018-03-28T03:00:38.686Z,19.60
2018-03-28T03:03:07.075Z,20.63
2018-03-28T03:05:35.486Z,20.40
2018-03-28T03:08:03.830Z,18.90
2018-03-28T03:10:31.520Z,23.37
2018-03-28T03:12:59.090Z,20.00
2018-03-28T03:15:26.704Z,19.40
2018-03-28T03:17:54.273Z,19.00
2018-03-28T03:20:21.863Z,19.63
2018-03-28T03:22:49.462Z,21.37
2018-03-28T03:25:17.037Z,17.97
2018-03-28T03:27:44.633Z,18.20
2018-03-28T03:30:12.437Z,19.87
2018-03-28T03:32:40.052Z,20.10
2018-03-28T03:35:07.641Z,24.63
2018-03-28T03:37:35.246Z,21.80
2018-03-28T03:40:02.837Z,20.50
2018-03-28T03:42:30.468Z,17.77
2018-03-28T03:44:58.067Z,21.10
2018-03-28T03:47:25.716Z,19.23
2018-03-28T03:49:53.306Z,17.47
2018-03-28T03:52:20.910Z,17.97
2018-03-28T03:54:48.507Z,19.00
2018-03-28T03:57:16.107Z,18.73
2018-03-28T03:59:43.694Z,22.37
2018-03-28T04:02:12.041Z,19.10
2018-03-28T04:04:39.892Z,19.80
2018-03-28T04:07:07.470Z,20.03
2018-03-28T04:09:35.091Z,18.43
2018-03-28T04:12:02.699Z,19.50
2018-03-28T04:14:31.063Z,22.43
2018-03-28T04:16:58.644Z,20.70
2018-03-28T04:19:26.994Z,20.17
2018-03-28T04:21:54.596Z,20.50
2018-03-28T04:24:22.971Z,23.43
2018-03-28T04:26:50.549Z,20.40
2018-03-28T04:29:18.152Z,18.47
2018-03-28T04:31:46.475Z,20.37
2018-03-28T04:34:14.080Z,21.47
2018-03-28T04:36:41.683Z,19.03
2018-03-28T04:39:09.252Z,20.17
2018-03-28T04:41:37.910Z,20.47
2018-03-28T04:44:05.504Z,18.43
2018-03-28T04:46:33.062Z,19.53
2018-03-28T04:49:00.644Z,17.97
2018-03-28T04:51:28.211Z,17.77
2018-03-28T04:53:55.783Z,18.87
2018-03-28T04:56:23.406Z,18.07
2018-03-28T04:58:50.996Z,28.60
2018-03-28T05:01:18.578Z,19.37
2018-03-28T05:03:46.146Z,20.97
2018-03-28T05:06:13.717Z,17.47
2018-03-28T05:08:41.316Z,17.50
2018-03-28T05:11:10.198Z,17.83
2018-03-28T05:13:38.887Z,17.13
2018-03-28T05:16:06.449Z,17.17
2018-03-28T05:18:34.028Z,16.90
2018-03-28T05:21:01.629Z,20.00
2018-03-28T05:23:29.207Z,23.83
2018-03-28T05:25:56.848Z,19.67
2018-03-28T05:28:24.447Z,21.60
2018-03-28T05:30:52.059Z,26.07
2018-03-28T05:33:19.642Z,20.50
2018-03-28T05:35:47.221Z,20.70
2018-03-28T05:38:14.813Z,20.00
2018-03-28T05:40:42.384Z,20.63
2018-03-28T05:43:09.958Z,18.70
2018-03-28T05:45:38.727Z,22.10
2018-03-28T05:48:06.351Z,22.83
2018-03-28T05:50:34.725Z,19.40
2018-03-28T05:53:02.316Z,30.17
2018-03-28T05:55:31.250Z,21.70
2018-03-28T05:57:58.819Z,17.93
2018-03-28T06:00:27.307Z,20.50
2018-03-28T06:02:54.911Z,19.97
2018-03-28T06:05:22.528Z,20.40
2018-03-28T06:07:50.094Z,18.23
2018-03-28T06:10:17.667Z,20.27
2018-03-28T06:12:45.270Z,17.23
2018-03-28T06:15:12.853Z,16.83
2018-03-28T06:17:41.202Z,17.27
2018-03-28T06:20:08.767Z,17.47
2018-03-28T06:22:36.346Z,19.27
2018-03-28T06:25:03.970Z,17.30
2018-03-28T06:27:31.571Z,16.67
2018-03-28T06:29:59.138Z,16.27
2018-03-28T06:32:26.801Z,18.17
2018-03-28T06:34:55.127Z,18.30
2018-03-28T06:37:22.833Z,16.77
2018-03-28T06:39:51.400Z,12.80
2018-03-28T06:42:19.900Z,13.20
2018-03-28T06:44:47.464Z,12.73
2018-03-28T06:47:15.082Z,11.40
2018-03-28T06:49:42.682Z,10.13
2018-03-28T06:52:10.307Z,10.90
2018-03-28T06:54:38.618Z,9.67
2018-03-28T06:57:06.224Z,9.17
2018-03-28T06:59:33.874Z,9.40
2018-03-28T07:02:03.252Z,7.97
2018-03-28T07:04:30.869Z,7.57
2018-03-28T07:06:58.460Z,9.13
2018-03-28T07:09:26.918Z,8.47
2018-03-28T07:11:55.259Z,9.23
2018-03-28T07:16:26.624Z,10.63
2018-03-28T07:18:58.743Z,9.20
2018-03-28T07:21:27.573Z,8.77
2018-03-28T07:23:56.038Z,9.50
2018-03-28T07:26:23.869Z,10.90
2018-03-28T07:28:52.059Z,8.93
2018-03-28T07:31:20.054Z,7.83
2018-03-28T07:36:23.433Z,8.77
2018-03-28T07:38:51.310Z,10.17
2018-03-28T07:41:19.124Z,9.17
2018-03-28T07:43:47.278Z,8.67
2018-03-28T07:46:17.953Z,8.93
2018-03-28T07:48:50.491Z,7.73
2018-03-28T07:51:18.578Z,8.13
2018-03-28T07:53:46.157Z,8.00
2018-03-28T07:56:15.056Z,9.63
2018-03-28T07:58:43.372Z,7.37
2018-03-28T08:01:11.514Z,8.23
2018-03-28T08:03:39.638Z,8.73
2018-03-28T08:06:08.185Z,7.30
2018-03-28T08:08:36.252Z,7.43
2018-03-28T08:11:03.883Z,8.03
2018-03-28T08:13:31.458Z,6.87
2018-03-28T08:15:59.095Z,7.30
2018-03-28T08:18:26.713Z,6.50
2018-03-28T08:20:54.351Z,6.63
2018-03-28T08:23:21.930Z,5.53
2018-03-28T08:25:49.505Z,5.80
2018-03-28T08:28:17.096Z,5.47
2018-03-28T08:30:44.659Z,6.10
2018-03-28T08:33:12.224Z,6.17
2018-03-28T08:35:39.819Z,6.30
2018-03-28T08:38:07.379Z,5.60
2018-03-28T08:40:36.003Z,6.40
2018-03-28T08:43:04.343Z,5.63
2018-03-28T08:45:32.656Z,5.03
2018-03-28T08:48:00.258Z,5.60
2018-03-28T08:50:28.689Z,7.00
2018-03-28T08:52:56.316Z,6.20
2018-03-28T08:55:24.674Z,6.30
2018-03-28T08:57:53.062Z,6.70
2018-03-28T09:00:20.761Z,5.43
2018-03-28T09:02:48.382Z,5.70
2018-03-28T09:05:15.978Z,6.23
2018-03-28T09:07:44.084Z,7.00
2018-03-28T09:10:12.542Z,6.53
2018-03-28T09:12:40.302Z,6.43
2018-03-28T09:15:07.945Z,6.80
2018-03-28T09:17:35.630Z,7.23
2018-03-28T09:20:04.093Z,6.50
2018-03-28T09:22:31.697Z,7.53
2018-03-28T09:25:00.282Z,6.87
2018-03-28T09:27:27.918Z,7.27
2018-03-28T09:29:56.323Z,7.80
2018-03-28T09:32:24.293Z,7.27
2018-03-28T09:34:53.592Z,7.53
2018-03-28T09:37:21.716Z,7.83
2018-03-28T09:39:49.350Z,7.43
2018-03-28T09:42:16.934Z,8.60
2018-03-28T09:44:44.526Z,7.60
2018-03-28T09:47:12.134Z,7.67
2018-03-28T09:49:40.507Z,7.93
2018-03-28T09:52:08.881Z,9.27
2018-03-28T09:54:36.466Z,7.07
2018-03-28T09:57:04.868Z,9.47
2018-03-28T09:59:33.203Z,7.67
2018-03-28T10:02:01.207Z,9.07
2018-03-28T10:04:34.517Z,9.20
2018-03-28T10:07:02.080Z,8.50
2018-03-28T10:09:29.650Z,8.60
2018-03-28T10:11:57.352Z,9.60
2018-03-28T10:14:24.923Z,10.23
2018-03-28T10:16:52.492Z,8.90
2018-03-28T10:19:20.066Z,8.37
2018-03-28T10:21:48.434Z,8.00
2018-03-28T10:24:16.002Z,9.07
2018-03-28T10:26:43.612Z,8.80
2018-03-28T10:29:12.230Z,8.07
2018-03-28T10:31:40.710Z,9.03
2018-03-28T10:34:08.431Z,8.70
2018-03-28T10:36:36.423Z,8.33
2018-03-28T10:39:03.981Z,7.77
2018-03-28T10:41:31.558Z,8.63
2018-03-28T10:43:59.216Z,10.03
2018-03-28T10:46:26.803Z,9.87
2018-03-28T10:48:55.300Z,6.83
2018-03-28T10:51:23.046Z,9.67
2018-03-28T10:53:50.655Z,8.50
2018-03-28T10:56:18.592Z,8.17
2018-03-28T10:58:47.937Z,8.83
2018-03-28T11:01:15.563Z,10.20
2018-03-28T11:03:43.174Z,8.63
2018-03-28T11:06:10.787Z,8.80
2018-03-28T11:08:40.160Z,6.73
2018-03-28T11:11:07.771Z,8.33
2018-03-28T11:13:35.384Z,8.73
2018-03-28T11:16:03.798Z,8.17
2018-03-28T11:18:31.439Z,9.27
2018-03-28T11:20:59.082Z,9.23
2018-03-28T11:23:26.678Z,7.50
2018-03-28T11:25:56.330Z,9.97
2018-03-28T11:28:24.053Z,8.13
2018-03-28T11:30:51.671Z,8.63
2018-03-28T11:33:20.074Z,10.20
2018-03-28T11:35:47.678Z,8.50
2018-03-28T11:38:15.268Z,10.77
2018-03-28T11:40:42.910Z,9.30
2018-03-28T11:43:10.532Z,10.10
2018-03-28T11:45:38.753Z,9.50
2018-03-28T11:48:06.363Z,9.80
2018-03-28T11:50:33.951Z,9.80
2018-03-28T11:53:02.370Z,9.93
2018-03-28T11:55:31.087Z,9.23
2018-03-28T11:57:58.723Z,8.63
2018-03-28T12:00:26.414Z,8.57
2018-03-28T12:02:53.999Z,10.20
2018-03-28T12:05:22.444Z,10.63
2018-03-28T12:07:50.024Z,9.70
2018-03-28T12:10:17.637Z,10.37
2018-03-28T12:12:46.754Z,9.13
2018-03-28T12:15:15.198Z,12.30
2018-03-28T12:17:43.398Z,12.60
2018-03-28T12:20:10.982Z,15.20
2018-03-28T12:22:39.487Z,15.30
2018-03-28T12:25:08.079Z,15.10
2018-03-28T12:27:35.628Z,14.70
2018-03-28T12:30:03.207Z,16.87
2018-03-28T12:32:30.796Z,17.23
2018-03-28T12:34:58.370Z,15.13
2018-03-28T12:37:25.950Z,15.30
2018-03-28T12:39:53.796Z,13.90
2018-03-28T12:42:21.415Z,14.63
2018-03-28T12:44:49.011Z,16.20
2018-03-28T12:47:17.485Z,14.00
2018-03-28T12:49:45.931Z,15.43
2018-03-28T12:52:13.473Z,13.27
2018-03-28T12:54:41.252Z,12.57
2018-03-28T12:57:08.893Z,12.57
2018-03-28T12:59:36.570Z,13.27
2018-03-28T13:02:04.230Z,16.03
2018-03-28T13:04:31.798Z,14.10
2018-03-28T13:07:00.329Z,14.20
2018-03-28T13:09:27.942Z,12.60
2018-03-28T13:11:55.531Z,12.83
2018-03-28T13:14:23.096Z,12.20
2018-03-28T13:16:50.724Z,9.77
2018-03-28T13:19:19.451Z,10.60
2018-03-28T13:21:47.142Z,8.50
2018-03-28T13:24:15.506Z,11.40
2018-03-28T13:26:43.148Z,11.33
2018-03-28T13:29:10.972Z,11.73
2018-03-28T13:31:39.940Z,13.83
2018-03-28T13:34:07.569Z,11.97
2018-03-28T13:36:35.582Z,11.83
2018-03-28T13:39:03.729Z,12.50
2018-03-28T13:41:31.410Z,12.13
2018-03-28T13:43:59.764Z,12.17
2018-03-28T13:46:27.342Z,14.60
2018-03-28T13:48:54.986Z,14.43
2018-03-28T13:51:24.572Z,15.00
2018-03-28T13:53:52.924Z,13.43
2018-03-28T13:56:20.636Z,13.00
2018-03-28T13:58:48.226Z,12.97
2018-03-28T14:01:17.213Z,14.83
2018-03-28T14:03:44.832Z,14.37
2018-03-28T14:06:12.468Z,16.50
2018-03-28T14:08:40.152Z,14.40
2018-03-28T14:11:08.186Z,12.40
2018-03-28T14:13:35.889Z,12.40
2018-03-28T14:16:05.425Z,16.63
2018-03-28T14:18:34.014Z,12.67
2018-03-28T14:21:02.205Z,12.40
2018-03-28T14:23:30.008Z,14.47
2018-03-28T14:25:58.437Z,13.87
2018-03-28T14:28:26.100Z,13.80
2018-03-28T14:30:53.691Z,13.73
2018-03-28T14:33:21.412Z,13.07
2018-03-28T14:35:49.077Z,11.93
2018-03-28T14:38:17.533Z,12.97
2018-03-28T14:40:45.210Z,13.27
2018-03-28T14:43:12.813Z,12.00
2018-03-28T14:45:40.504Z,11.70
2018-03-28T14:48:08.888Z,12.90
2018-03-28T14:50:37.520Z,13.77
2018-03-28T14:53:05.184Z,11.70
2018-03-28T14:55:32.847Z,12.53
2018-03-28T14:58:00.519Z,12.33
2018-03-28T15:00:29.085Z,14.03
2018-03-28T15:02:56.782Z,13.00
2018-03-28T15:05:24.589Z,10.00
2018-03-28T15:07:52.210Z,13.63
2018-03-28T15:10:19.944Z,13.40
2018-03-28T15:12:47.605Z,13.83
2018-03-28T15:15:15.270Z,11.00
2018-03-28T15:17:42.957Z,11.97
2018-03-28T15:20:10.667Z,13.70
2018-03-28T15:22:38.594Z,11.50
2018-03-28T15:25:07.171Z,9.30
2018-03-28T15:27:34.785Z,12.37
2018-03-28T15:30:02.430Z,11.87
2018-03-28T15:32:30.802Z,12.57
2018-03-28T15:34:58.487Z,13.00
2018-03-28T15:37:26.906Z,11.57
2018-03-28T15:39:54.706Z,11.70
2018-03-28T15:42:22.378Z,10.50
2018-03-28T15:44:49.991Z,9.47
2018-03-28T15:47:17.595Z,33.90
2018-03-28T15:49:45.286Z,14.33
2018-03-28T15:52:12.861Z,12.80
2018-03-28T15:54:41.085Z,15.70
2018-03-28T15:57:08.680Z,12.23
2018-03-28T15:59:37.172Z,11.80
2018-03-28T16:02:04.766Z,12.67
2018-03-28T16:04:33.160Z,11.10
2018-03-28T16:07:01.574Z,10.23
2018-03-28T16:09:29.221Z,14.03
2018-03-28T16:11:56.865Z,10.30
2018-03-28T16:14:24.724Z,9.13
2018-03-28T16:16:52.399Z,8.77
2018-03-28T16:19:20.015Z,7.70
2018-03-28T16:21:48.833Z,8.67
2018-03-28T16:24:17.918Z,7.90
2018-03-28T16:26:45.873Z,8.30
2018-03-28T16:29:14.248Z,7.37
2018-03-28T16:31:42.002Z,8.80
2018-03-28T16:34:09.646Z,8.77
2018-03-28T16:36:38.216Z,8.67
2018-03-28T16:39:06.774Z,8.40
2018-03-28T16:41:34.420Z,8.67
2018-03-28T16:44:02.125Z,9.73
2018-03-28T16:46:29.729Z,9.83
2018-03-28T16:48:57.347Z,8.67
2018-03-28T16:51:25.005Z,9.83
2018-03-28T16:53:53.404Z,9.97
2018-03-28T16:56:21.800Z,8.80
2018-03-28T16:58:51.595Z,51.43
2018-03-28T17:01:20.214Z,70.00
2018-03-28T17:03:47.830Z,14.07
2018-03-28T17:06:15.518Z,10.47
2018-03-28T17:08:43.181Z,11.63
2018-03-28T17:11:10.856Z,10.93
2018-03-28T17:13:39.326Z,11.37
2018-03-28T17:16:06.912Z,11.23
2018-03-28T17:18:34.496Z,11.40
2018-03-28T17:21:02.137Z,12.00
2018-03-28T17:23:29.852Z,12.57
2018-03-28T17:25:57.581Z,12.90
2018-03-28T17:28:25.207Z,11.30
2018-03-28T17:30:52.882Z,14.63
2018-03-28T17:33:20.486Z,13.00
2018-03-28T17:35:48.847Z,14.90
2018-03-28T17:38:16.428Z,15.30
2018-03-28T17:40:44.039Z,14.90
2018-03-28T17:43:11.611Z,16.67
2018-03-28T17:45:40.574Z,14.77
2018-03-28T17:48:08.203Z,17.07
2018-03-28T17:50:35.835Z,17.53
2018-03-28T17:53:04.312Z,17.67
2018-03-28T17:55:32.031Z,22.43
2018-03-28T17:57:59.840Z,80.10
2018-03-28T18:00:28.156Z,63.87
2018-03-28T18:02:55.782Z,21.53
2018-03-28T18:05:23.922Z,21.53
2018-03-28T18:07:52.025Z,20.57
2018-03-28T18:10:20.351Z,24.23
2018-03-28T18:12:50.273Z,20.90
2018-03-28T18:15:19.506Z,21.40
2018-03-28T18:17:47.784Z,19.83
2018-03-28T18:20:16.063Z,21.73
2018-03-28T18:22:44.341Z,20.87
2018-03-28T18:25:12.533Z,23.87
2018-03-28T18:27:41.396Z,22.07
2018-03-28T18:30:09.038Z,23.87
2018-03-28T18:32:37.164Z,19.43
2018-03-28T18:35:05.469Z,23.83
2018-03-28T18:37:34.372Z,22.77
2018-03-28T18:40:03.447Z,23.37
2018-03-28T18:42:31.678Z,23.50
2018-03-28T18:44:59.886Z,23.17
2018-03-28T18:47:28.067Z,22.40
2018-03-28T18:49:57.493Z,21.80
2018-03-28T18:52:26.413Z,24.67
2018-03-28T18:54:54.511Z,23.47
2018-03-28T18:57:22.743Z,20.87
2018-03-28T18:59:51.047Z,22.80
2018-03-28T19:02:20.220Z,25.50
2018-03-28T19:04:48.317Z,23.87
2018-03-28T19:07:17.345Z,23.60
2018-03-28T19:09:45.572Z,22.57
2018-03-28T19:12:13.727Z,139.87
2018-03-28T19:14:42.806Z,123.70
2018-03-28T19:17:10.965Z,54.23
2018-03-28T19:19:39.179Z,26.13
2018-03-28T19:22:07.305Z,23.90
2018-03-28T19:24:36.363Z,21.10
2018-03-28T19:27:04.533Z,20.73
2018-03-28T19:29:32.462Z,23.20
2018-03-28T19:32:00.137Z,23.23
2018-03-28T19:34:27.797Z,22.43
2018-03-28T19:36:55.399Z,23.80
2018-03-28T19:39:22.983Z,23.97
2018-03-28T19:41:50.564Z,25.23
2018-03-28T19:44:18.543Z,20.43
2018-03-28T19:46:47.944Z,24.30
2018-03-28T19:49:16.331Z,22.50
2018-03-28T19:51:44.864Z,21.50
2018-03-28T19:54:12.463Z,22.20
2018-03-28T19:56:43.059Z,20.20
2018-03-28T19:59:11.060Z,21.10
2018-03-28T20:01:39.276Z,22.57
2018-03-28T20:04:07.487Z,20.73
2018-03-28T20:06:36.448Z,18.00
2018-03-28T20:09:04.524Z,21.13
2018-03-28T20:11:33.218Z,21.00
2018-03-28T20:14:00.923Z,19.73
2018-03-28T20:16:29.345Z,14.93
2018-03-28T20:18:56.947Z,13.13
2018-03-28T20:21:25.336Z,11.97
2018-03-28T20:23:53.704Z,9.10
2018-03-28T20:26:21.341Z,7.60
2018-03-28T20:28:48.952Z,6.47
2018-03-28T20:31:16.597Z,6.80
2018-03-28T20:33:44.172Z,8.73
2018-03-28T20:36:11.770Z,5.97
2018-03-28T20:38:39.530Z,5.77
2018-03-28T20:41:07.193Z,5.97
2018-03-28T20:43:34.788Z,7.50
2018-03-28T20:46:02.451Z,6.77
2018-03-28T20:48:30.022Z,6.83
2018-03-28T20:50:57.609Z,6.93
2018-03-28T20:53:25.254Z,7.80
2018-03-28T20:55:52.831Z,9.40
2018-03-28T20:58:20.513Z,7.93
2018-03-28T21:00:48.255Z,7.63
2018-03-28T21:03:16.600Z,7.17
2018-03-28T21:05:44.213Z,6.97
2018-03-28T21:08:12.606Z,5.37
2018-03-28T21:10:40.727Z,4.20
2018-03-28T21:13:08.332Z,4.43
2018-03-28T21:15:35.920Z,4.30
2018-03-28T21:18:03.866Z,3.10
2018-03-28T21:20:31.483Z,3.10
2018-03-28T21:22:59.306Z,2.40
2018-03-28T21:25:27.758Z,2.80
2018-03-28T21:27:56.212Z,2.93
2018-03-28T21:30:24.655Z,3.00
2018-03-28T21:32:52.345Z,2.87
2018-03-28T21:35:19.959Z,3.40
2018-03-28T21:37:47.583Z,4.00
2018-03-28T21:40:15.163Z,5.23
2018-03-28T21:42:42.806Z,5.27
2018-03-28T21:45:11.373Z,5.53
2018-03-28T21:47:39.938Z,6.73
2018-03-28T21:50:07.586Z,8.00
2018-03-28T21:52:35.275Z,8.67
2018-03-28T21:55:02.897Z,9.80
2018-03-28T21:57:31.305Z,10.07
2018-03-28T21:59:59.696Z,9.60
2018-03-28T22:02:28.482Z,12.27
2018-03-28T22:04:56.283Z,14.37
2018-03-28T22:07:25.078Z,12.40
2018-03-28T22:09:53.452Z,17.03
2018-03-28T22:12:21.189Z,14.63
2018-03-28T22:14:49.687Z,19.40
2018-03-28T22:17:17.358Z,20.90
2018-03-28T22:19:44.978Z,19.90
2018-03-28T22:22:12.793Z,21.20
2018-03-28T22:24:41.375Z,21.00
2018-03-28T22:27:09.049Z,23.77
2018-03-28T22:29:36.832Z,20.27
2018-03-28T22:32:04.474Z,23.70
2018-03-28T22:34:32.882Z,24.83
2018-03-28T22:37:01.243Z,28.70
2018-03-28T22:39:29.632Z,24.33
2018-03-28T22:41:57.495Z,23.10
2018-03-28T22:44:25.122Z,21.07
2018-03-28T22:46:52.733Z,26.33
2018-03-28T22:49:20.361Z,22.37
2018-03-28T22:51:48.716Z,21.63
2018-03-28T22:54:16.348Z,19.73
2018-03-28T22:56:44.133Z,20.27
2018-03-28T22:59:12.555Z,20.40
2018-03-28T23:01:40.177Z,20.70
2018-03-28T23:04:08.070Z,20.70
2018-03-28T23:06:35.689Z,20.83
2018-03-28T23:09:03.314Z,17.77
2018-03-28T23:11:30.911Z,20.50
2018-03-28T23:13:58.543Z,21.00
2018-03-28T23:16:26.931Z,15.63
2018-03-28T23:18:54.551Z,22.10
2018-03-28T23:21:22.120Z,16.97
2018-03-28T23:23:50.374Z,21.40
2018-03-28T23:26:19.305Z,22.63
2018-03-28T23:28:48.256Z,24.07
2018-03-28T23:31:16.127Z,20.07
2018-03-28T23:33:44.278Z,15.87
2018-03-28T23:36:11.924Z,19.67
2018-03-28T23:38:39.537Z,19.70
2018-03-28T23:41:07.189Z,20.37
2018-03-28T23:43:34.847Z,18.27
2018-03-28T23:46:02.451Z,19.13
2018-03-28T23:48:30.048Z,16.23
2018-03-28T23:50:57.646Z,20.90
2018-03-28T23:53:26.084Z,17.90
2018-03-28T23:55:54.472Z,19.33
2018-03-28T23:58:22.111Z,18.37
